FredonyerEastRWIS Atmospheric Data: 02/14/2020 Summary  Detailed Graphs  Station List

  Temperature     Wind Precipitation Visibility
Timestamp Air Wet
Bulb
Dew-
point
24-hr
Max
24-hr
Min
Relative
Humidity
Atmospheric
Pressure
Avg
Speed
Avg
Dir
Spot
Speed
Spot
Dir
Max
Speed
Max
Dir
  Rate Situation Start End 1 hr 3 hr 6 hr 12 hr 24 hr   Situation
Date Time °F °F °F °F °F % in Hg mph ° mph ° mph ° Y/N in/hr text Date Time Date Time in in in in in mi text
02/14/2020 12:08 AM 29.48 27.50 23.72 54.68 19.58 78.0 Not Reported 1.79 N 0.00 N 2.68 N No 0.000 No Precipitation 02/02/2020 12:50 PM 02/02/2020 12:55 PM 0.000 0.000 0.000 0.000 0.000 Not Reported Not Reported
02/14/2020 12:23 AM 29.30 27.32 23.54 54.68 19.58 78.0 Not Reported 1.34 N 0.22 NW 1.57 N No 0.000 No Precipitation 02/02/2020 12:50 PM 02/02/2020 12:55 PM 0.000 0.000 0.000 0.000 0.000 Not Reported Not Reported
02/14/2020 12:38 AM 28.94 27.14 24.08 54.68 19.58 81.0 Not Reported 0.67 S 0.00 SW 1.57 N No 0.000 No Precipitation 02/02/2020 12:50 PM 02/02/2020 12:55 PM 0.000 0.000 0.000 0.000 0.000 Not Reported Not Reported
02/14/2020 12:53 AM 28.40 26.78 23.90 54.68 19.58 83.0 Not Reported 1.79 NW 0.00 NW 2.46 NW No 0.000 No Precipitation 02/02/2020 12:50 PM 02/02/2020 12:55 PM 0.000 0.000 0.000 0.000 0.000 Not Reported Not Reported
02/14/2020 01:08 AM 28.76 27.14 24.08 54.68 19.58 82.0 Not Reported 1.34 N 1.12 N 2.24 E No 0.000 No Precipitation 02/02/2020 12:50 PM 02/02/2020 12:55 PM 0.000 0.000 0.000 0.000 0.000 Not Reported Not Reported
02/14/2020 01:23 AM 28.76 27.32 24.44 54.68 19.58 83.0 Not Reported 0.22 NW 1.57 W 2.46 N No 0.000 No Precipitation 02/02/2020 12:50 PM 02/02/2020 12:55 PM 0.000 0.000 0.000 0.000 0.000 Not Reported Not Reported
02/14/2020 01:38 AM 28.58 27.32 24.80 54.68 19.58 85.0 Not Reported 1.34 N 1.57 NW 1.79 N No 0.000 No Precipitation 02/02/2020 12:50 PM 02/02/2020 12:55 PM 0.000 0.000 0.000 0.000 0.000 Not Reported Not Reported
02/14/2020 01:53 AM 28.58 27.32 24.98 54.68 19.58 85.0 Not Reported 0.45 N 1.34 N 2.91 NW No 0.000 No Precipitation 02/02/2020 12:50 PM 02/02/2020 12:55 PM 0.000 0.000 0.000 0.000 0.000 Not Reported Not Reported
02/14/2020 02:08 AM 28.58 27.14 24.44 54.68 19.58 83.0 Not Reported 0.22 N 0.22 N 1.79 N No 0.000 No Precipitation 02/02/2020 12:50 PM 02/02/2020 12:55 PM 0.000 0.000 0.000 0.000 0.000 Not Reported Not Reported
02/14/2020 02:24 AM 28.40 27.14 24.44 54.68 19.58 84.0 Not Reported 1.12 NW 0.22 NW 1.34 N No 0.000 No Precipitation 02/02/2020 12:50 PM 02/02/2020 12:55 PM 0.000 0.000 0.000 0.000 0.000 Not Reported Not Reported
02/14/2020 02:38 AM 28.22 26.96 24.26 54.68 19.58 84.0 Not Reported 0.00 NW 0.00 N 1.34 NW No 0.000 No Precipitation 02/02/2020 12:50 PM 02/02/2020 12:55 PM 0.000 0.000 0.000 0.000 0.000 Not Reported Not Reported
02/14/2020 02:53 AM 28.22 26.96 24.44 54.68 19.58 85.0 Not Reported 0.22 N 0.45 N 1.34 NE No 0.000 No Precipitation 02/02/2020 12:50 PM 02/02/2020 12:55 PM 0.000 0.000 0.000 0.000 0.000 Not Reported Not Reported
02/14/2020 03:08 AM 27.68 26.42 24.08 54.68 19.58 86.0 Not Reported 0.45 E 0.45 NE 1.79 N No 0.000 No Precipitation 02/02/2020 12:50 PM 02/02/2020 12:55 PM 0.000 0.000 0.000 0.000 0.000 Not Reported Not Reported
02/14/2020 03:23 AM 27.50 26.42 24.26 54.68 19.58 87.0 Not Reported 0.67 NE 0.00 NE 1.79 NE No 0.000 No Precipitation 02/02/2020 12:50 PM 02/02/2020 12:55 PM 0.000 0.000 0.000 0.000 0.000 Not Reported Not Reported
02/14/2020 03:38 AM 27.50 26.42 24.62 54.68 19.58 88.0 Not Reported 1.57 NE 0.67 NE 2.01 NE No 0.000 No Precipitation 02/02/2020 12:50 PM 02/02/2020 12:55 PM 0.000 0.000 0.000 0.000 0.000 Not Reported Not Reported
02/14/2020 03:53 AM 27.14 26.06 24.26 54.68 19.58 88.0 Not Reported 1.34 NE 1.34 N 2.01 NE No 0.000 No Precipitation 02/02/2020 12:50 PM 02/02/2020 12:55 PM 0.000 0.000 0.000 0.000 0.000 Not Reported Not Reported
02/14/2020 04:09 AM 26.96 26.06 24.26 54.68 19.58 89.0 Not Reported 0.89 NE 1.12 N 2.24 NE No 0.000 No Precipitation 02/02/2020 12:50 PM 02/02/2020 12:55 PM 0.000 0.000 0.000 0.000 0.000 Not Reported Not Reported
02/14/2020 04:23 AM 26.60 25.70 24.08 54.68 19.58 89.0 Not Reported 1.57 NW 0.45 NW 1.79 NW No 0.000 No Precipitation 02/02/2020 12:50 PM 02/02/2020 12:55 PM 0.000 0.000 0.000 0.000 0.000 Not Reported Not Reported
02/14/2020 04:38 AM 26.42 25.70 24.08 54.68 19.58 90.0 Not Reported 0.67 NE 0.67 N 1.57 NE No 0.000 No Precipitation 02/02/2020 12:50 PM 02/02/2020 12:55 PM 0.000 0.000 0.000 0.000 0.000 Not Reported Not Reported
02/14/2020 04:53 AM 26.60 25.88 24.08 54.68 19.58 90.0 Not Reported 0.89 N 0.00 N 2.24 N No 0.000 No Precipitation 02/02/2020 12:50 PM 02/02/2020 12:55 PM 0.000 0.000 0.000 0.000 0.000 Not Reported Not Reported
02/14/2020 05:08 AM 26.60 25.88 24.44 54.68 19.58 91.0 Not Reported 1.57 N 2.01 N 2.24 N No 0.000 No Precipitation 02/02/2020 12:50 PM 02/02/2020 12:55 PM 0.000 0.000 0.000 0.000 0.000 Not Reported Not Reported
02/14/2020 05:23 AM 26.78 25.88 24.44 54.68 19.58 91.0 Not Reported 1.34 NW 0.00 NW 1.79 N No 0.000 No Precipitation 02/02/2020 12:50 PM 02/02/2020 12:55 PM 0.000 0.000 0.000 0.000 0.000 Not Reported Not Reported
02/14/2020 05:38 AM 27.14 26.42 25.16 54.68 19.58 91.0 Not Reported 0.89 NE 2.01 NE 2.24 NE No 0.000 No Precipitation 02/02/2020 12:50 PM 02/02/2020 12:55 PM 0.000 0.000 0.000 0.000 0.000 Not Reported Not Reported
02/14/2020 05:53 AM 26.96 26.24 24.80 54.68 19.58 91.0 Not Reported 0.45 E 1.79 NE 1.79 NE No 0.000 No Precipitation 02/02/2020 12:50 PM 02/02/2020 12:55 PM 0.000 0.000 0.000 0.000 0.000 Not Reported Not Reported
02/14/2020 06:08 AM 27.50 26.78 25.16 54.68 19.58 90.0 Not Reported 2.01 NE 1.79 NE 2.68 NE No 0.000 No Precipitation 02/02/2020 12:50 PM 02/02/2020 12:55 PM 0.000 0.000 0.000 0.000 0.000 Not Reported Not Reported
02/14/2020 06:23 AM 26.96 26.24 24.62 54.68 19.58 91.0 Not Reported 0.00 N 0.89 N 2.01 NE No 0.000 No Precipitation 02/02/2020 12:50 PM 02/02/2020 12:55 PM 0.000 0.000 0.000 0.000 0.000 Not Reported Not Reported
02/14/2020 06:39 AM 27.14 26.42 24.98 54.68 19.58 91.0 Not Reported 1.12 E 0.89 NE 1.57 NE No 0.000 No Precipitation 02/02/2020 12:50 PM 02/02/2020 12:55 PM 0.000 0.000 0.000 0.000 0.000 Not Reported Not Reported
02/14/2020 06:53 AM 27.14 26.42 24.98 54.68 19.58 91.0 Not Reported 0.45 NE 0.89 E 1.34 E No 0.000 No Precipitation 02/02/2020 12:50 PM 02/02/2020 12:55 PM 0.000 0.000 0.000 0.000 0.000 Not Reported Not Reported
02/14/2020 07:08 AM 26.78 26.06 24.62 54.68 19.76 91.0 Not Reported 0.89 E 1.79 E 1.79 E No 0.000 No Precipitation 02/02/2020 12:50 PM 02/02/2020 12:55 PM 0.000 0.000 0.000 0.000 0.000 Not Reported Not Reported
02/14/2020 07:23 AM 27.14 26.42 24.80 54.68 20.12 90.0 Not Reported 1.34 NE 0.89 NE 2.46 E No 0.000 No Precipitation 02/02/2020 12:50 PM 02/02/2020 12:55 PM 0.000 0.000 0.000 0.000 0.000 Not Reported Not Reported
02/14/2020 07:39 AM 27.14 26.42 24.98 54.68 20.12 91.0 Not Reported 0.00 N 0.00 N 1.57 NE No 0.000 No Precipitation 02/02/2020 12:50 PM 02/02/2020 12:55 PM 0.000 0.000 0.000 0.000 0.000 Not Reported Not Reported
02/14/2020 07:53 AM 30.02 28.58 26.42 54.68 20.84 86.0 Not Reported 0.22 S 1.12 SE 1.12 E No 0.000 No Precipitation 02/02/2020 12:50 PM 02/02/2020 12:55 PM 0.000 0.000 0.000 0.000 0.000 Not Reported Not Reported
02/14/2020 08:08 AM 32.36 30.74 27.14 54.68 21.92 79.0 Not Reported 1.12 E 1.57 SE 2.01 S No 0.000 No Precipitation 02/02/2020 12:50 PM 02/02/2020 12:55 PM 0.000 0.000 0.000 0.000 0.000 Not Reported Not Reported
02/14/2020 08:23 AM 35.60 32.18 26.96 54.68 24.26 70.0 Not Reported 2.91 SE 3.58 SE 5.37 SE No 0.000 No Precipitation 02/02/2020 12:50 PM 02/02/2020 12:55 PM 0.000 0.000 0.000 0.000 0.000 Not Reported Not Reported
02/14/2020 08:38 AM 35.24 32.18 27.68 54.68 26.42 72.0 Not Reported 2.01 SE 3.13 SE 2.24 SE No 0.000 No Precipitation 02/02/2020 12:50 PM 02/02/2020 12:55 PM 0.000 0.000 0.000 0.000 0.000 Not Reported Not Reported
02/14/2020 08:53 AM 35.96 32.54 27.32 54.68 26.42 70.0 Not Reported 1.57 NE 2.68 E 3.36 SE No 0.000 No Precipitation 02/02/2020 12:50 PM 02/02/2020 12:55 PM 0.000 0.000 0.000 0.000 0.000 Not Reported Not Reported
02/14/2020 09:08 AM 36.50 32.72 27.14 54.68 26.42 68.0 Not Reported 1.79 SE 1.79 SE 3.13 SE No 0.000 No Precipitation 02/02/2020 12:50 PM 02/02/2020 12:55 PM 0.000 0.000 0.000 0.000 0.000 Not Reported Not Reported
02/14/2020 09:23 AM 38.48 33.98 26.96 54.68 26.42 62.0 Not Reported 2.24 SE 2.68 SE 3.13 SE No 0.000 No Precipitation 02/02/2020 12:50 PM 02/02/2020 12:55 PM 0.000 0.000 0.000 0.000 0.000 Not Reported Not Reported
02/14/2020 09:39 AM 42.62 35.42 24.08 54.68 26.42 47.0 Not Reported 2.68 S 5.37 W 5.37 W No 0.000 No Precipitation 02/02/2020 12:50 PM 02/02/2020 12:55 PM 0.000 0.000 0.000 0.000 0.000 Not Reported Not Reported
02/14/2020 09:53 AM 44.78 36.86 24.08 54.68 26.42 43.0 Not Reported 1.79 W 1.57 W 6.49 S No 0.000 No Precipitation 02/02/2020 12:50 PM 02/02/2020 12:55 PM 0.000 0.000 0.000 0.000 0.000 Not Reported Not Reported
02/14/2020 10:08 AM 45.50 37.22 24.80 54.68 26.42 43.0 Not Reported 6.04 SW 5.59 S 8.05 W No 0.000 No Precipitation 02/02/2020 12:50 PM 02/02/2020 12:55 PM 0.000 0.000 0.000 0.000 0.000 Not Reported Not Reported
02/14/2020 10:23 AM 46.40 37.40 23.36 54.68 26.42 39.0 Not Reported 3.80 S 1.79 S 5.82 S No 0.000 No Precipitation 02/02/2020 12:50 PM 02/02/2020 12:55 PM 0.000 0.000 0.000 0.000 0.000 Not Reported Not Reported
02/14/2020 10:38 AM 44.96 36.86 23.90 54.68 26.42 43.0 Not Reported 5.14 SW 4.03 SE 9.40 S No 0.000 No Precipitation 02/02/2020 12:50 PM 02/02/2020 12:55 PM 0.000 0.000 0.000 0.000 0.000 Not Reported Not Reported
02/14/2020 10:53 AM 44.60 36.32 22.82 54.68 26.42 41.0 Not Reported 4.70 SW 4.03 W 8.05 SW No 0.000 No Precipitation 02/02/2020 12:50 PM 02/02/2020 12:55 PM 0.000 0.000 0.000 0.000 0.000 Not Reported Not Reported
02/14/2020 11:08 AM 46.58 37.22 22.28 54.68 26.42 37.0 Not Reported 2.46 SW 2.68 S 6.71 W No 0.000 No Precipitation 02/02/2020 12:50 PM 02/02/2020 12:55 PM 0.000 0.000 0.000 0.000 0.000 Not Reported Not Reported
02/14/2020 11:23 AM 47.48 37.58 20.48 54.68 26.42 34.0 Not Reported 3.80 SW 4.92 SW 9.40 S No 0.000 No Precipitation 02/02/2020 12:50 PM 02/02/2020 12:55 PM 0.000 0.000 0.000 0.000 0.000 Not Reported Not Reported
02/14/2020 11:40 AM 48.38 37.22 18.86 54.68 26.42 30.0 Not Reported 4.70 SW 5.59 W 11.41 S No 0.000 No Precipitation 02/02/2020 12:50 PM 02/02/2020 12:55 PM 0.000 0.000 0.000 0.000 0.000 Not Reported Not Reported
02/14/2020 11:53 AM 47.48 37.22 19.22 54.68 26.42 31.0 Not Reported 7.38 W 5.37 S 8.72 NW No 0.000 No Precipitation 02/02/2020 12:50 PM 02/02/2020 12:55 PM 0.000 0.000 0.000 0.000 0.000 Not Reported Not Reported
02/14/2020 12:09 PM 48.38 37.40 18.86 54.68 26.42 30.0 Not Reported 3.36 SW 7.38 SW 7.38 SW No 0.000 No Precipitation 02/02/2020 12:50 PM 02/02/2020 12:55 PM 0.000 0.000 0.000 0.000 0.000 Not Reported Not Reported
02/14/2020 12:23 PM 48.56 37.76 19.40 54.68 26.42 30.0 Not Reported 5.37 SW 4.70 SW 7.61 S No 0.000 No Precipitation 02/02/2020 12:50 PM 02/02/2020 12:55 PM 0.000 0.000 0.000 0.000 0.000 Not Reported Not Reported
02/14/2020 12:38 PM 50.18 39.02 21.38 54.68 26.42 31.0 Not Reported 4.70 SW 2.46 SE 7.83 SE No 0.000 No Precipitation 02/02/2020 12:50 PM 02/02/2020 12:55 PM 0.000 0.000 0.000 0.000 0.000 Not Reported Not Reported
02/14/2020 12:53 PM 50.72 39.38 21.20 54.68 26.42 30.0 Not Reported 4.47 SW 4.25 SE 10.07 NW No 0.000 No Precipitation 02/02/2020 12:50 PM 02/02/2020 12:55 PM 0.000 0.000 0.000 0.000 0.000 Not Reported Not Reported
02/14/2020 01:08 PM 50.72 39.20 20.84 54.68 26.42 30.0 Not Reported 4.70 SW 3.80 SW 8.50 S No 0.000 No Precipitation 02/02/2020 12:50 PM 02/02/2020 12:55 PM 0.000 0.000 0.000 0.000 0.000 Not Reported Not Reported
02/14/2020 01:23 PM 51.26 39.02 19.40 54.68 26.42 27.0 Not Reported 3.80 SW 7.83 SW 8.95 SW No 0.000 No Precipitation 02/02/2020 12:50 PM 02/02/2020 12:55 PM 0.000 0.000 0.000 0.000 0.000 Not Reported Not Reported
02/14/2020 01:38 PM 51.44 39.20 19.04 54.68 26.42 27.0 Not Reported 5.14 SW 2.46 S 7.83 W No 0.000 No Precipitation 02/02/2020 12:50 PM 02/02/2020 12:55 PM 0.000 0.000 0.000 0.000 0.000 Not Reported Not Reported
02/14/2020 01:54 PM 52.16 39.38 17.78 54.68 26.42 25.0 Not Reported 5.37 SW 1.34 SW 9.62 W No 0.000 No Precipitation 02/02/2020 12:50 PM 02/02/2020 12:55 PM 0.000 0.000 0.000 0.000 0.000 Not Reported Not Reported
02/14/2020 02:08 PM 52.52 39.56 18.32 54.68 26.42 25.0 Not Reported 3.36 NW 4.92 SW 6.04 W No 0.000 No Precipitation 02/02/2020 12:50 PM 02/02/2020 12:55 PM 0.000 0.000 0.000 0.000 0.000 Not Reported Not Reported
02/14/2020 02:24 PM 53.42 40.10 18.86 54.68 26.42 25.0 Not Reported 2.68 SW 6.04 SW 6.26 S No 0.000 No Precipitation 02/02/2020 12:50 PM 02/02/2020 12:55 PM 0.000 0.000 0.000 0.000 0.000 Not Reported Not Reported
02/14/2020 02:40 PM 51.98 39.20 17.96 54.14 26.42 25.0 Not Reported 2.46 SW 3.58 W 6.93 SW No 0.000 No Precipitation 02/02/2020 12:50 PM 02/02/2020 12:55 PM 0.000 0.000 0.000 0.000 0.000 Not Reported Not Reported
02/14/2020 02:53 PM 52.34 39.56 19.04 54.14 26.42 26.0 Not Reported 3.80 S 5.59 SE 6.04 S No 0.000 No Precipitation 02/02/2020 12:50 PM 02/02/2020 12:55 PM 0.000 0.000 0.000 0.000 0.000 Not Reported Not Reported
02/14/2020 03:08 PM 53.42 40.46 19.58 54.14 26.42 26.0 Not Reported 1.57 S 1.57 SE 6.71 S No 0.000 No Precipitation 02/02/2020 12:50 PM 02/02/2020 12:55 PM 0.000 0.000 0.000 0.000 0.000 Not Reported Not Reported
02/14/2020 03:23 PM 52.52 39.56 18.86 54.32 26.42 25.0 Not Reported 5.14 W 4.25 W 7.83 W No 0.000 No Precipitation 02/02/2020 12:50 PM 02/02/2020 12:55 PM 0.000 0.000 0.000 0.000 0.000 Not Reported Not Reported
02/14/2020 03:38 PM 52.88 39.92 19.22 54.32 26.42 25.0 Not Reported 1.57 SW 4.25 S 4.92 S No 0.000 No Precipitation 02/02/2020 12:50 PM 02/02/2020 12:55 PM 0.000 0.000 0.000 0.000 0.000 Not Reported Not Reported
02/14/2020 03:53 PM 53.24 40.64 21.74 54.32 26.42 28.0 Not Reported 4.03 S 4.47 S 6.71 S No 0.000 No Precipitation 02/02/2020 12:50 PM 02/02/2020 12:55 PM 0.000 0.000 0.000 0.000 0.000 Not Reported Not Reported
02/14/2020 04:08 PM 50.90 39.92 22.82 54.32 26.42 32.0 Not Reported 0.89 S 2.01 SE 3.13 NW No 0.000 No Precipitation 02/02/2020 12:50 PM 02/02/2020 12:55 PM 0.000 0.000 0.000 0.000 0.000 Not Reported Not Reported
02/14/2020 04:23 PM 50.00 39.02 21.92 54.32 26.42 32.0 Not Reported 2.46 SW 2.01 S 3.80 W No 0.000 No Precipitation 02/02/2020 12:50 PM 02/02/2020 12:55 PM 0.000 0.000 0.000 0.000 0.000 Not Reported Not Reported
02/14/2020 04:39 PM 42.44 36.14 26.78 54.32 26.42 53.0 Not Reported 2.01 W 1.12 N 3.58 W No 0.000 No Precipitation 02/02/2020 12:50 PM 02/02/2020 12:55 PM 0.000 0.000 0.000 0.000 0.000 Not Reported Not Reported
02/14/2020 04:53 PM 40.82 35.06 26.78 54.32 26.42 56.0 Not Reported 1.34 NW 0.89 N 4.03 NW No 0.000 No Precipitation 02/02/2020 12:50 PM 02/02/2020 12:55 PM 0.000 0.000 0.000 0.000 0.000 Not Reported Not Reported
02/14/2020 05:09 PM 39.02 34.34 27.32 54.32 26.42 62.0 Not Reported 1.12 NW 1.57 NW 3.13 W No 0.000 No Precipitation 02/02/2020 12:50 PM 02/02/2020 12:55 PM 0.000 0.000 0.000 0.000 0.000 Not Reported Not Reported
02/14/2020 05:23 PM 37.76 33.80 27.68 54.32 26.42 65.0 Not Reported 0.89 NW 1.57 NW 1.79 W No 0.000 No Precipitation 02/02/2020 12:50 PM 02/02/2020 12:55 PM 0.000 0.000 0.000 0.000 0.000 Not Reported Not Reported
02/14/2020 05:38 PM 36.32 32.54 26.42 54.32 26.42 66.0 Not Reported 1.12 W 1.12 W 1.79 NW No 0.000 No Precipitation 02/02/2020 12:50 PM 02/02/2020 12:55 PM 0.000 0.000 0.000 0.000 0.000 Not Reported Not Reported
02/14/2020 05:53 PM 34.70 31.28 25.34 54.32 26.42 68.0 Not Reported 0.00 NW 0.00 NW 1.34 NW No 0.000 No Precipitation 02/02/2020 12:50 PM 02/02/2020 12:55 PM 0.000 0.000 0.000 0.000 0.000 Not Reported Not Reported
02/14/2020 06:08 PM 33.08 30.20 24.80 54.32 26.42 70.0 Not Reported 0.22 NW 0.67 NE 0.89 SW No 0.000 No Precipitation 02/02/2020 12:50 PM 02/02/2020 12:55 PM 0.000 0.000 0.000 0.000 0.000 Not Reported Not Reported
02/14/2020 06:23 PM 32.18 29.48 24.26 54.32 26.42 71.0 Not Reported 1.12 NW 1.57 W 1.57 W No 0.000 No Precipitation 02/02/2020 12:50 PM 02/02/2020 12:55 PM 0.000 0.000 0.000 0.000 0.000 Not Reported Not Reported
02/14/2020 06:38 PM 31.64 29.12 24.08 54.32 26.42 73.0 Not Reported 1.12 NW 0.67 NW 1.57 NW No 0.000 No Precipitation 02/02/2020 12:50 PM 02/02/2020 12:55 PM 0.000 0.000 0.000 0.000 0.000 Not Reported Not Reported
02/14/2020 06:53 PM 31.10 27.14 19.22 54.32 26.42 61.0 Not Reported 1.34 W 1.12 W 1.57 NW No 0.000 No Precipitation 02/02/2020 12:50 PM 02/02/2020 12:55 PM 0.000 0.000 0.000 0.000 0.000 Not Reported Not Reported
02/14/2020 07:08 PM 30.20 26.78 19.58 54.32 26.42 63.0 Not Reported 0.00 N 0.00 SW 1.12 W No 0.000 No Precipitation 02/02/2020 12:50 PM 02/02/2020 12:55 PM 0.000 0.000 0.000 0.000 0.000 Not Reported Not Reported
02/14/2020 07:23 PM 30.02 25.70 15.62 54.32 26.42 54.0 Not Reported 1.34 W 0.89 NW 1.57 W No 0.000 No Precipitation 02/02/2020 12:50 PM 02/02/2020 12:55 PM 0.000 0.000 0.000 0.000 0.000 Not Reported Not Reported
02/14/2020 07:38 PM 30.56 26.96 19.22 54.32 26.42 62.0 Not Reported 0.67 NW 1.12 NW 1.34 NW No 0.000 No Precipitation 02/02/2020 12:50 PM 02/02/2020 12:55 PM 0.000 0.000 0.000 0.000 0.000 Not Reported Not Reported
02/14/2020 07:53 PM 31.10 27.14 19.22 54.32 26.42 61.0 Not Reported 0.45 W 1.34 NW 1.34 NW No 0.000 No Precipitation 02/02/2020 12:50 PM 02/02/2020 12:55 PM 0.000 0.000 0.000 0.000 0.000 Not Reported Not Reported
02/14/2020 08:08 PM 31.10 27.86 21.56 54.32 26.42 67.0 Not Reported 1.57 SW 0.22 SW 2.01 NW No 0.000 No Precipitation 02/02/2020 12:50 PM 02/02/2020 12:55 PM 0.000 0.000 0.000 0.000 0.000 Not Reported Not Reported
02/14/2020 08:23 PM 31.28 28.76 23.72 54.32 26.42 73.0 Not Reported 0.22 W 0.67 NW 2.01 NW No 0.000 No Precipitation 02/02/2020 12:50 PM 02/02/2020 12:55 PM 0.000 0.000 0.000 0.000 0.000 Not Reported Not Reported
02/14/2020 08:38 PM 31.64 29.48 25.88 54.32 26.42 79.0 Not Reported 0.22 NW 0.00 NW 1.57 W No 0.000 No Precipitation 02/02/2020 12:50 PM 02/02/2020 12:55 PM 0.000 0.000 0.000 0.000 0.000 Not Reported Not Reported
02/14/2020 08:53 PM 31.10 28.94 25.16 54.32 26.42 78.0 Not Reported 0.00 NW 0.45 NW 1.12 N No 0.000 No Precipitation 02/02/2020 12:50 PM 02/02/2020 12:55 PM 0.000 0.000 0.000 0.000 0.000 Not Reported Not Reported
02/14/2020 09:09 PM 31.10 29.12 25.52 54.32 26.42 79.0 Not Reported 0.00 NW 0.00 NW 0.45 W No 0.000 No Precipitation 02/02/2020 12:50 PM 02/02/2020 12:55 PM 0.000 0.000 0.000 0.000 0.000 Not Reported Not Reported
02/14/2020 09:23 PM 30.74 28.94 25.88 54.32 26.42 82.0 Not Reported 0.00 N 0.00 NW 1.34 N No 0.000 No Precipitation 02/02/2020 12:50 PM 02/02/2020 12:55 PM 0.000 0.000 0.000 0.000 0.000 Not Reported Not Reported
02/14/2020 09:38 PM 30.56 28.94 26.06 54.32 26.42 83.0 Not Reported 0.67 W 0.00 W 1.79 W No 0.000 No Precipitation 02/02/2020 12:50 PM 02/02/2020 12:55 PM 0.000 0.000 0.000 0.000 0.000 Not Reported Not Reported
02/14/2020 09:53 PM 31.10 29.84 27.50 54.32 26.42 86.0 Not Reported 0.22 W 1.57 W 1.79 NW No 0.000 No Precipitation 02/02/2020 12:50 PM 02/02/2020 12:55 PM 0.000 0.000 0.000 0.000 0.000 Not Reported Not Reported
02/14/2020 10:08 PM 30.74 29.66 27.50 54.32 26.42 87.0 Not Reported 0.89 NW 0.45 NW 1.79 W No 0.000 No Precipitation 02/02/2020 12:50 PM 02/02/2020 12:55 PM 0.000 0.000 0.000 0.000 0.000 Not Reported Not Reported
02/14/2020 10:23 PM 31.28 30.20 28.04 54.32 26.42 87.0 Not Reported 0.00 N 0.45 SE 0.67 SE No 0.000 No Precipitation 02/02/2020 12:50 PM 02/02/2020 12:55 PM 0.000 0.000 0.000 0.000 0.000 Not Reported Not Reported
02/14/2020 10:38 PM 30.92 29.84 27.86 54.32 26.42 88.0 Not Reported 0.67 NW 0.89 NW 1.34 NW No 0.000 No Precipitation 02/02/2020 12:50 PM 02/02/2020 12:55 PM 0.000 0.000 0.000 0.000 0.000 Not Reported Not Reported
02/14/2020 10:53 PM 30.56 29.48 27.50 54.32 26.42 88.0 Not Reported 1.57 NW 1.34 NW 2.01 NW No 0.000 No Precipitation 02/02/2020 12:50 PM 02/02/2020 12:55 PM 0.000 0.000 0.000 0.000 0.000 Not Reported Not Reported
02/14/2020 11:08 PM 30.74 29.84 28.40 54.32 26.42 90.0 Not Reported 1.12 W 0.22 SW 1.79 W No 0.000 No Precipitation 02/02/2020 12:50 PM 02/02/2020 12:55 PM 0.000 0.000 0.000 0.000 0.000 Not Reported Not Reported
02/14/2020 11:23 PM 30.38 29.48 28.04 54.32 26.42 90.0 Not Reported 0.00 E 0.00 E 1.12 N No 0.000 No Precipitation 02/02/2020 12:50 PM 02/02/2020 12:55 PM 0.000 0.000 0.000 0.000 0.000 Not Reported Not Reported
02/14/2020 11:38 PM 31.10 29.84 28.04 54.32 26.42 88.0 Not Reported 0.22 SW 0.00 S 0.89 N No 0.000 No Precipitation 02/02/2020 12:50 PM 02/02/2020 12:55 PM 0.000 0.000 0.000 0.000 0.000 Not Reported Not Reported
02/14/2020 11:53 PM 30.20 29.30 27.68 54.32 26.42 90.0 Not Reported 0.89 N 0.00 E 1.12 N No 0.000 No Precipitation 02/02/2020 12:50 PM 02/02/2020 12:55 PM 0.000 0.000 0.000 0.000 0.000 Not Reported Not Reported